Change the Weather History Date:

Monday, March 18, 2013

  Actual Average Record
Temperature  
Mean Temperature 20 °F -  
Max Temperature 26 °F 33 °F 78 °F (2012)
Min Temperature 14 °F 11 °F -5 °F (2005)
Degree Days  
Heating Degree Days 45    
Moisture  
Dew Point 16 °F    
Average Humidity 82    
Maximum Humidity 93    
Minimum Humidity 58    
Precipitation  
Precipitation 0.08 in - - ()
Sea Level Pressure  
Sea Level Pressure 29.53 in    
Wind  
Wind Speed 10 mph (SSE)    
Max Wind Speed 17 mph    
Max Gust Speed 25 mph    
Visibility 4 miles    
Events Snow    
Averages and records for this station are not official NWS values.
T = Trace of Precipitation, MM = Missing Value Source: NWS Daily Summary

Daily Weather History Graph

Daily Weather History Graph

Search for Another Location

Airport or City:

Trip Planner

Search our weather history database for the weather conditions in past years. The results will help you decide how hot, cold, wet, or windy it might be!

Date:

Astronomy

Mar. 18, 2013 Rise Set
Actual Time 7:17 AM CDT 7:21 PM CDT
Civil Twilight 6:46 AM CDT 7:52 PM CDT
Nautical Twilight 6:10 AM CDT 8:29 PM CDT
Astronomical Twilight 5:33 AM CDT 9:06 PM CDT
Moon 10:52 AM CDT (3/18) 1:46 AM CDT (3/18)
Length of Visible Light 13h 05m
Length of Day
12h 03m
Waxing Crescent, 41% of the Moon is Illuminated
Mar 18
Waxing Crescent
Mar 19
First Quarter
Mar 27
Full
Apr 2
Last Quarter
Apr 10
New

Hourly Weather History & Observations

Time (CDT) Temp. Windchill Dew Point Humidity Pressure Visibility Wind Dir Wind Speed Gust Speed Precip Events Conditions
12:13 AM 17.6 °F 6.4 °F 8.6 °F 68% 29.80 in 10.0 mi SE 9.2 mph 16.1 mph N/A   Overcast
12:33 AM 19.4 °F 9.5 °F 10.4 °F 68% 29.78 in 10.0 mi SE 8.1 mph 17.3 mph N/A   Overcast
12:53 AM 19.4 °F 7.9 °F 10.4 °F 68% 29.77 in 10.0 mi SE 10.4 mph 16.1 mph N/A   Mostly Cloudy
1:13 AM 19.4 °F 7.2 °F 10.4 °F 68% 29.77 in 10.0 mi SE 11.5 mph 16.1 mph N/A   Mostly Cloudy
1:33 AM 19.4 °F 7.9 °F 8.6 °F 63% 29.74 in 10.0 mi SE 10.4 mph 16.1 mph N/A   Mostly Cloudy
1:53 AM 21.2 °F 10.1 °F 8.6 °F 58% 29.72 in 10.0 mi SE 10.4 mph 18.4 mph N/A   Scattered Clouds
2:13 AM 21.2 °F 8.9 °F 8.6 °F 58% 29.70 in 10.0 mi SE 12.7 mph 21.9 mph N/A   Clear
2:33 AM 21.2 °F 9.5 °F 10.4 °F 63% 29.69 in 5.0 mi SE 11.5 mph 20.7 mph N/A Snow Light Snow
2:53 AM 19.4 °F 7.2 °F 12.2 °F 74% 29.68 in 3.0 mi SE 11.5 mph 18.4 mph N/A Snow Light Snow
3:13 AM 19.4 °F 9.5 °F 12.2 °F 74% 29.67 in 2.5 mi SSE 8.1 mph - N/A Snow Light Snow
3:33 AM 19.4 °F 11.5 °F 15.8 °F 86% 29.68 in 1.0 mi SSE 5.8 mph - N/A Snow Snow
3:53 AM 19.4 °F 9.5 °F 15.8 °F 86% 29.68 in 1.2 mi SSE 8.1 mph - N/A Snow Snow
4:14 AM 19.4 °F 8.6 °F 15.8 °F 86% 29.66 in 1.5 mi SE 9.2 mph - N/A Snow Light Snow
4:33 AM 19.4 °F 8.6 °F 15.8 °F 86% 29.64 in 4.0 mi SE 9.2 mph 16.1 mph N/A Snow Light Snow
4:53 AM 19.4 °F 8.6 °F 15.8 °F 86% 29.62 in 10.0 mi SE 9.2 mph 16.1 mph N/A   Overcast
5:13 AM 19.4 °F 7.2 °F 15.8 °F 86% 29.61 in 7.0 mi SE 11.5 mph 17.3 mph N/A Snow Light Snow
5:33 AM 19.4 °F 8.6 °F 15.8 °F 86% 29.60 in 2.5 mi SE 9.2 mph 17.3 mph N/A Snow Light Snow
5:53 AM 19.4 °F 6.6 °F 15.8 °F 86% 29.59 in 2.5 mi SSE 12.7 mph 17.3 mph N/A Snow Light Snow
6:13 AM 19.4 °F 7.9 °F 15.8 °F 86% 29.58 in 3.0 mi SE 10.4 mph 18.4 mph N/A Snow Light Snow
6:34 AM 19.4 °F 10.4 °F 15.8 °F 86% 29.57 in 2.5 mi SE 6.9 mph 16.1 mph N/A Snow Light Snow
6:53 AM 19.4 °F 8.6 °F 15.8 °F 86% 29.56 in 2.5 mi SE 9.2 mph 17.3 mph N/A Snow Light Snow
7:13 AM 19.4 °F 7.9 °F 15.8 °F 86% 29.55 in 2.0 mi SE 10.4 mph - N/A Snow Light Snow
7:33 AM 19.4 °F 8.6 °F 15.8 °F 86% 29.54 in 1.2 mi SE 9.2 mph 18.4 mph N/A Snow Light Snow
7:53 AM 19.4 °F 7.9 °F 15.8 °F 86% 29.53 in 0.8 mi SE 10.4 mph 17.3 mph N/A Snow Light Snow
8:13 AM 19.4 °F 7.9 °F 17.6 °F 93% 29.52 in 0.8 mi SE 10.4 mph 16.1 mph N/A Snow Light Snow
8:33 AM 19.4 °F 8.6 °F 17.6 °F 93% 29.51 in 1.0 mi SE 9.2 mph - N/A Snow Light Snow
8:53 AM 21.2 °F 9.5 °F 17.6 °F 86% 29.50 in 0.8 mi SE 11.5 mph 16.1 mph N/A Snow Light Snow
9:13 AM 21.2 °F 10.1 °F 17.6 °F 86% 29.49 in 1.0 mi SE 10.4 mph 17.3 mph N/A Snow Light Snow
9:33 AM 21.2 °F 10.1 °F 17.6 °F 86% 29.48 in 1.2 mi SE 10.4 mph 16.1 mph N/A Snow Light Snow
9:53 AM 21.2 °F 9.5 °F 17.6 °F 86% 29.48 in 7.0 mi SE 11.5 mph 16.1 mph 0.01 in   Mostly Cloudy
10:13 AM 21.2 °F 9.5 °F 17.6 °F 86% 29.47 in 5.0 mi SE 11.5 mph 18.4 mph N/A   Overcast
10:33 AM 23.0 °F 12.4 °F 19.4 °F 86% 29.47 in 2.0 mi SE 10.4 mph 17.3 mph N/A Snow Light Snow
10:53 AM 23.0 °F 12.4 °F 19.4 °F 86% 29.46 in 2.0 mi SE 10.4 mph 16.1 mph N/A Snow Light Snow
11:13 AM 23.0 °F 11.7 °F 19.4 °F 86% 29.46 in 3.0 mi SE 11.5 mph - N/A Snow Light Snow
11:33 AM 23.0 °F 11.7 °F 17.6 °F 80% 29.45 in 5.0 mi SE 11.5 mph - 0.01 in Snow Light Snow
11:53 AM 24.8 °F 14.0 °F 19.4 °F 80% 29.45 in 5.0 mi SE 11.5 mph - 0.01 in Snow Light Snow
12:13 PM 24.8 °F 14.0 °F 19.4 °F 80% 29.44 in 4.0 mi SSE 11.5 mph 16.1 mph N/A Snow Light Snow
12:33 PM 24.8 °F 14.0 °F 19.4 °F 80% 29.43 in 2.5 mi SE 11.5 mph 19.6 mph N/A Snow Light Snow
12:53 PM 24.8 °F 15.3 °F 19.4 °F 80% 29.42 in 3.0 mi SSE 9.2 mph 19.6 mph N/A Snow Light Snow
1:13 PM 24.8 °F 14.6 °F 19.4 °F 80% 29.42 in 4.0 mi SSE 10.4 mph 16.1 mph N/A Snow Light Snow
1:34 PM 26.6 °F 16.8 °F 19.4 °F 74% 29.42 in 5.0 mi SSE 10.4 mph - N/A Snow Light Snow
1:53 PM 26.6 °F 16.8 °F 19.4 °F 74% 29.41 in 7.0 mi SSE 10.4 mph - N/A Snow Light Snow
2:13 PM 26.6 °F 18.2 °F 19.4 °F 74% 29.41 in 10.0 mi South 8.1 mph - 0.01 in   Overcast
2:33 PM 24.8 °F 13.4 °F 19.4 °F 80% 29.42 in 7.0 mi SSE 12.7 mph - 0.01 in Snow Light Snow
2:53 PM 24.8 °F 14.6 °F 19.4 °F 80% 29.41 in 10.0 mi SSE 10.4 mph 17.3 mph 0.01 in Snow Light Snow
3:15 PM 24.8 °F 16.1 °F 19.4 °F 80% 29.41 in 4.0 mi SSE 8.1 mph - N/A Snow Light Snow
3:33 PM 24.8 °F 16.1 °F 21.2 °F 86% 29.41 in 4.0 mi SSE 8.1 mph - N/A Snow Light Snow
3:53 PM 24.8 °F 16.1 °F 21.2 °F 86% 29.41 in 5.0 mi South 8.1 mph - N/A Snow Light Snow
4:14 PM 23.0 °F 13.9 °F 19.4 °F 86% 29.42 in 4.0 mi SSW 8.1 mph - N/A Snow Light Snow
4:33 PM 23.0 °F 17.0 °F 19.4 °F 86% 29.43 in 5.0 mi SW 4.6 mph - N/A Snow Light Snow
4:53 PM 23.0 °F 15.8 °F 17.6 °F 80% 29.43 in 4.0 mi SW 5.8 mph - N/A Snow Light Snow
5:13 PM 21.2 °F 13.6 °F 17.6 °F 86% 29.43 in 3.0 mi WSW 5.8 mph - 0.01 in Snow Light Snow
5:33 PM 21.2 °F 14.9 °F 17.6 °F 86% 29.44 in 2.0 mi SW 4.6 mph - 0.02 in Snow Light Snow
5:53 PM 21.2 °F 14.9 °F 17.6 °F 86% 29.44 in 2.0 mi WSW 4.6 mph - 0.04 in Snow Light Snow
6:13 PM 21.2 °F 16.4 °F 17.6 °F 86% 29.45 in 2.5 mi WSW 3.5 mph - N/A Snow Light Snow
6:33 PM 21.2 °F 16.4 °F 17.6 °F 86% 29.45 in 2.5 mi WSW 3.5 mph - N/A Snow Light Snow
6:53 PM 21.2 °F 16.4 °F 17.6 °F 86% 29.46 in 2.0 mi WSW 3.5 mph - N/A Snow Light Snow
7:13 PM 21.2 °F - 17.6 °F 86% 29.46 in 1.8 mi Calm Calm - N/A Snow Light Snow
7:33 PM 21.2 °F - 17.6 °F 86% 29.47 in 1.8 mi Calm Calm - N/A Snow Light Snow
7:53 PM 21.2 °F - 17.6 °F 86% 29.47 in 4.0 mi Calm Calm - N/A   Overcast
8:13 PM 21.2 °F 11.7 °F 19.4 °F 93% 29.47 in 2.5 mi WNW 8.1 mph - 0.01 in Snow Light Snow
8:33 PM 21.2 °F 8.9 °F 19.4 °F 93% 29.48 in 2.0 mi NW 12.7 mph 20.7 mph 0.01 in Snow Light Snow
8:53 PM 21.2 °F 7.8 °F 17.6 °F 86% 29.49 in 2.5 mi WNW 15.0 mph 20.7 mph 0.01 in Snow Light Snow
9:13 PM 21.2 °F 6.8 °F 17.6 °F 86% 29.50 in 3.0 mi WNW 17.3 mph 24.2 mph N/A Snow Light Snow
9:33 PM 19.4 °F 4.5 °F 15.8 °F 86% 29.51 in 3.0 mi WNW 17.3 mph 24.2 mph N/A Snow Light Snow
9:53 PM 19.4 °F 4.5 °F 15.8 °F 86% 29.52 in 2.5 mi WNW 17.3 mph 23.0 mph N/A Snow Light Snow
10:13 PM 17.6 °F 2.7 °F 14.0 °F 86% 29.53 in 2.5 mi WNW 16.1 mph 23.0 mph N/A Snow Light Snow
10:33 PM 17.6 °F 2.7 °F 12.2 °F 79% 29.54 in 3.0 mi WNW 16.1 mph 25.3 mph N/A Snow Light Snow
10:53 PM 15.8 °F 1.4 °F 12.2 °F 86% 29.55 in 3.0 mi WNW 13.8 mph 20.7 mph N/A Snow Light Snow
11:13 PM 15.8 °F 1.4 °F 10.4 °F 79% 29.56 in 3.0 mi WNW 13.8 mph 21.9 mph N/A Snow Light Snow
11:33 PM 14.0 °F -1.4 °F 10.4 °F 86% 29.56 in 5.0 mi WNW 15.0 mph 23.0 mph N/A Snow Light Snow
11:53 PM 14.0 °F -1.4 °F 8.6 °F 79% 29.57 in 5.0 mi WNW 15.0 mph 20.7 mph N/A Snow Light Snow